Time;durP1;ratioP1;P1;durP2;ratioP2;P2;SDS_P1;SDS_P2;PMS_P1;PMS_P2;Temp;Humidity;BMP_temperature;BMP_pressure;BME280_temperature;BME280_humidity;BME280_pressure;Samples;Min_cycle;Max_cycle;Signal;HPM_P1;HPM_P2
2023/03/13 00:01:09;;;;;;;26.88;6.22;;;;;;;8.67;100.00;99891.47;4972755;28;20039;-56
2023/03/13 00:03:34;;;;;;;26.70;6.97;;;;;;;8.97;100.00;99936.63;4972965;28;20126;-54
2023/03/13 00:06:00;;;;;;;20.50;6.53;;;;;;;8.67;100.00;99860.00;4972659;28;20074;-57
2023/03/13 00:08:28;;;;;;;27.85;7.22;;;;;;;8.68;100.00;99850.34;4972948;28;20109;-53
2023/03/13 00:10:54;;;;;;;20.20;6.82;;;;;;;8.67;100.00;99843.44;4971610;28;20375;-57
2023/03/13 00:13:19;;;;;;;24.23;6.93;;;;;;;9.01;100.00;99885.75;4972681;28;20046;-55
2023/03/13 00:15:44;;;;;;;20.23;6.65;;;;;;;9.00;100.00;99886.66;4972376;28;20038;-57
2023/03/13 00:18:10;;;;;;;20.85;7.18;;;;;;;9.04;100.00;99877.75;4972680;28;20089;-54
2023/03/13 00:20:35;;;;;;;19.83;7.30;;;;;;;8.93;100.00;99853.72;4972499;28;20082;-54
2023/03/13 00:23:00;;;;;;;20.10;6.95;;;;;;;8.69;100.00;99807.47;4987465;28;20039;-57
2023/03/13 00:25:26;;;;;;;21.60;7.75;;;;;;;9.00;100.00;99853.38;4987776;28;20047;-54
2023/03/13 00:27:51;;;;;;;20.67;7.28;;;;;;;9.05;100.00;99840.06;4971808;28;20457;-53
2023/03/13 00:30:16;;;;;;;15.60;6.93;;;;;;;9.09;100.00;99848.66;4972280;28;20113;-54
2023/03/13 00:32:44;;;;;;;22.20;6.97;;;;;;;9.09;100.00;99823.25;4972465;28;20061;-54
2023/03/13 00:35:11;;;;;;;22.80;7.30;;;;;;;8.86;100.00;99777.00;4974339;28;20039;-55
2023/03/13 00:37:36;;;;;;;17.65;7.45;;;;;;;9.13;100.00;99834.50;4975326;28;20486;-56
2023/03/13 00:40:03;;;;;;;22.73;7.40;;;;;;;8.80;100.00;99753.63;4976476;28;20043;-54
2023/03/13 00:42:28;;;;;;;15.25;6.78;;;;;;;9.15;100.00;99794.13;4976374;28;20038;-56
2023/03/13 00:44:54;;;;;;;18.83;7.35;;;;;;;8.90;100.00;99751.47;4975253;28;20038;-52
2023/03/13 00:47:19;;;;;;;17.85;7.00;;;;;;;9.21;100.00;99800.88;4976315;28;20509;-56
2023/03/13 00:49:44;;;;;;;16.70;7.93;;;;;;;9.19;100.00;99777.34;4975965;28;20034;-53
2023/03/13 00:52:10;;;;;;;13.95;6.78;;;;;;;9.24;100.00;99790.25;4976051;28;20035;-52
2023/03/13 00:54:35;;;;;;;15.52;7.07;;;;;;;9.24;100.00;99775.34;4976223;28;20101;-55
2023/03/13 00:57:00;;;;;;;18.75;8.10;;;;;;;9.29;100.00;99783.00;4974954;28;20530;-53
2023/03/13 00:59:25;;;;;;;15.95;7.38;;;;;;;9.15;100.00;99744.25;4975943;28;20039;-54
2023/03/13 01:01:51;;;;;;;17.67;7.38;;;;;;;8.86;100.00;99694.78;4975061;28;20407;-56
2023/03/13 01:04:16;;;;;;;14.75;8.38;;;;;;;9.21;100.00;99732.63;4975945;28;20042;-55
2023/03/13 01:06:42;;;;;;;19.55;9.35;;;;;;;9.02;100.00;99698.44;4975923;28;20470;-54
2023/03/13 01:09:10;;;;;;;17.50;9.05;;;;;;;9.06;100.00;99673.78;4975921;28;20047;-59
2023/03/13 01:11:38;;;;;;;17.23;9.25;;;;;;;9.41;100.00;99736.06;4975928;28;20030;-54
2023/03/13 01:14:12;;;;;;;20.08;10.15;;;;;;;9.19;100.00;99684.59;4990933;28;20044;-56
2023/03/13 01:16:38;;;;;;;17.40;9.48;;;;;;;9.17;100.00;99671.50;4975508;28;20065;-57
2023/03/13 01:19:09;;;;;;;16.63;9.65;;;;;;;9.42;100.00;99708.88;4973599;28;20458;-54
2023/03/13 01:21:35;;;;;;;19.80;11.75;;;;;;;9.51;100.00;99694.47;4975752;28;20070;-56
2023/03/13 01:24:00;;;;;;;16.50;11.68;;;;;;;9.21;100.00;99656.47;4975533;28;20065;-53
2023/03/13 01:26:26;;;;;;;22.48;13.60;;;;;;;9.46;100.00;99676.28;4975400;28;20447;-54
2023/03/13 01:28:51;;;;;;;21.05;14.02;;;;;;;9.33;100.00;99651.53;4975588;28;20035;-54
2023/03/13 01:31:21;;;;;;;22.42;14.45;;;;;;;9.71;100.00;99712.81;4975301;28;20035;-54
2023/03/13 01:33:49;;;;;;;24.95;14.65;;;;;;;9.38;100.00;99639.03;4972897;28;20039;-54
2023/03/13 01:36:15;;;;;;;21.67;14.70;;;;;;;9.76;100.00;99692.41;4975208;28;20042;-56
2023/03/13 01:38:41;;;;;;;25.92;15.50;;;;;;;9.67;100.00;99666.56;4975515;28;20093;-52
2023/03/13 01:41:07;;;;;;;25.05;16.25;;;;;;;9.78;100.00;99672.16;4975286;28;20479;-53
2023/03/13 01:43:35;;;;;;;29.50;17.80;;;;;;;9.51;100.00;99619.16;4973901;28;20043;-52
2023/03/13 01:46:08;;;;;;;29.48;18.30;;;;;;;9.84;100.00;99668.38;4975118;28;20130;-53
2023/03/13 01:48:40;;;;;;;33.20;18.50;;;;;;;9.86;100.00;99650.78;4975449;28;20093;-49
2023/03/13 01:51:20;;;;;;;29.83;18.45;;;;;;;9.80;100.00;99616.91;4975277;28;20031;-51
2023/03/13 01:53:50;;;;;;;28.40;18.87;;;;;;;9.92;100.00;99627.69;4974775;28;20057;-56
2023/03/13 01:56:32;;;;;;;29.42;19.58;;;;;;;10.02;100.00;99639.44;4973691;28;20502;-53
2023/03/13 01:58:58;;;;;;;28.48;19.88;;;;;;;9.92;100.00;99603.16;4974664;28;20109;-54
2023/03/13 02:01:23;;;;;;;31.13;19.10;;;;;;;9.91;100.00;99604.94;4975028;28;20455;-50
2023/03/13 02:03:49;;;;;;;29.95;20.48;;;;;;;10.05;100.00;99617.41;4973633;28;20039;-55
2023/03/13 02:06:15;;;;;;;28.08;19.67;;;;;;;9.76;100.00;99549.66;4972568;28;20403;-57
2023/03/13 02:08:50;;;;;;;29.60;19.60;;;;;;;10.09;100.00;99603.19;4974627;28;20046;-56
2023/03/13 02:11:53;;;;;;;24.90;19.98;;;;;;;10.16;100.00;99605.44;4973469;28;20022;-55
2023/03/13 02:14:20;;;;;;;24.77;18.80;;;;;;;9.85;100.00;99547.41;4965841;28;20490;-56
2023/03/13 02:16:47;;;;;;;23.25;18.40;;;;;;;9.89;100.00;99533.22;4973026;28;20039;-55
2023/03/13 02:19:41;;;;;;;23.10;19.15;;;;;;;10.30;100.00;99588.13;4973202;28;20054;-56
2023/03/13 02:22:28;;;;;;;29.88;18.52;;;;;;;10.38;100.00;99597.34;4973649;28;20022;-57
2023/03/13 02:25:02;;;;;;;24.45;16.80;;;;;;;10.41;100.00;99601.59;4973334;28;20065;-57
2023/03/13 02:27:27;;;;;;;29.55;17.63;;;;;;;10.14;100.00;99525.81;4974690;28;20042;-54
2023/03/13 02:29:53;;;;;;;28.13;17.15;;;;;;;10.19;100.00;99541.31;4973115;28;20034;-55
2023/03/13 02:32:18;;;;;;;26.02;16.77;;;;;;;10.49;100.00;99570.47;4974393;28;20129;-51
2023/03/13 02:34:46;;;;;;;23.60;16.13;;;;;;;10.18;100.00;99525.66;4973433;28;20038;-54
2023/03/13 02:37:12;;;;;;;22.05;15.00;;;;;;;10.56;100.00;99585.88;4972111;28;20450;-54
2023/03/13 02:39:41;;;;;;;18.80;14.60;;;;;;;10.43;100.00;99550.59;4956776;28;20042;-55
2023/03/13 02:42:07;;;;;;;19.45;14.73;;;;;;;10.30;100.00;99525.88;4974023;28;20057;-54
2023/03/13 02:44:38;;;;;;;20.90;13.45;;;;;;;10.62;100.00;99593.41;4972973;28;20117;-52
2023/03/13 02:47:03;;;;;;;20.65;13.73;;;;;;;10.30;100.00;99523.25;4972661;28;20026;-54
2023/03/13 02:49:29;;;;;;;18.42;14.20;;;;;;;10.57;100.00;99549.84;4974175;28;20023;-55
2023/03/13 02:52:24;;;;;;;18.92;13.50;;;;;;;10.41;100.00;99510.38;4974182;28;20034;-57
2023/03/13 02:54:53;;;;;;;19.08;13.75;;;;;;;10.48;100.00;99516.13;4972721;28;20469;-49
2023/03/13 02:57:18;;;;;;;18.98;12.15;;;;;;;10.54;100.00;99500.03;4971606;28;20039;-57
2023/03/13 02:59:44;;;;;;;15.10;11.63;;;;;;;10.88;100.00;99557.84;4974062;28;20094;-50
2023/03/13 03:02:09;;;;;;;15.23;11.55;;;;;;;10.92;100.00;99545.34;4973769;28;20043;-52
2023/03/13 03:04:34;;;;;;;13.88;10.68;;;;;;;10.94;100.00;99540.88;4974105;28;20043;-52
2023/03/13 03:07:00;;;;;;;14.20;9.30;;;;;;;10.98;100.00;99540.59;4973792;28;20445;-54
2023/03/13 03:09:25;;;;;;;16.05;9.05;;;;;;;11.01;100.00;99529.06;4973700;28;20070;-55
2023/03/13 03:11:50;;;;;;;12.05;7.63;;;;;;;10.98;100.00;99529.22;4972858;28;20039;-54
2023/03/13 03:14:16;;;;;;;14.50;7.25;;;;;;;11.11;100.00;99522.34;4973537;28;20031;-56
2023/03/13 03:16:42;;;;;;;13.40;7.15;;;;;;;11.09;100.00;99498.72;4972485;28;20039;-52
2023/03/13 03:19:07;;;;;;;14.23;6.47;;;;;;;10.91;100.00;99469.94;4973607;28;20493;-51
2023/03/13 03:21:33;;;;;;;12.25;6.35;;;;;;;10.93;100.00;99473.34;4972052;28;20039;-55
2023/03/13 03:23:58;;;;;;;12.00;6.65;;;;;;;11.03;100.00;99491.16;4973259;28;20073;-53
2023/03/13 03:26:24;;;;;;;12.32;5.40;;;;;;;11.25;100.00;99530.34;4972685;28;20043;-52
2023/03/13 03:28:50;;;;;;;11.45;6.32;;;;;;;11.28;100.00;99530.16;4972357;28;20046;-52
2023/03/13 03:31:15;;;;;;;11.48;5.80;;;;;;;10.98;100.00;99481.81;4973332;28;20081;-53
2023/03/13 03:33:42;;;;;;;8.20;5.25;;;;;;;11.31;100.00;99527.38;4987910;28;20060;-53
2023/03/13 03:36:11;;;;;;;13.48;5.68;;;;;;;11.02;100.00;99471.06;4988148;28;20201;-57
2023/03/13 03:38:38;;;;;;;12.80;6.28;;;;;;;11.22;100.00;99504.16;4973467;28;20077;-57
2023/03/13 03:41:04;;;;;;;13.27;5.43;;;;;;;11.00;100.00;99477.34;4973145;28;20097;-54
2023/03/13 03:43:29;;;;;;;10.40;5.55;;;;;;;11.29;100.00;99516.06;4972293;28;20042;-56
2023/03/13 03:45:54;;;;;;;10.93;6.57;;;;;;;11.30;100.00;99515.13;4973069;28;20035;-52
2023/03/13 03:48:20;;;;;;;15.13;6.63;;;;;;;11.30;100.00;99502.81;4973177;28;20034;-55
2023/03/13 03:50:45;;;;;;;16.77;7.03;;;;;;;11.27;100.00;99515.28;4972895;28;20038;-56
2023/03/13 03:53:10;;;;;;;10.35;7.13;;;;;;;11.29;100.00;99516.06;4987844;28;20386;-57
2023/03/13 03:55:36;;;;;;;10.25;6.65;;;;;;;10.99;100.00;99451.94;4972878;28;20073;-49
2023/03/13 03:58:01;;;;;;;11.52;6.95;;;;;;;11.29;100.00;99524.81;4972957;28;20038;-56
2023/03/13 04:00:26;;;;;;;10.15;6.60;;;;;;;10.91;100.00;99441.00;4972193;28;20035;-56
2023/03/13 04:02:53;;;;;;;13.32;7.22;;;;;;;10.95;100.00;99455.66;4971418;28;20051;-54
2023/03/13 04:05:18;;;;;;;13.85;7.53;;;;;;;11.09;100.00;99469.75;4972831;28;20042;-54
2023/03/13 04:07:44;;;;;;;12.40;7.50;;;;;;;11.27;100.00;99502.97;4972498;28;20402;-53
2023/03/13 04:10:10;;;;;;;13.40;8.18;;;;;;;10.93;100.00;99445.25;4972425;28;20039;-53
2023/03/13 04:12:35;;;;;;;13.25;8.02;;;;;;;10.99;100.00;99436.16;4972789;28;20126;-48
2023/03/13 04:15:00;;;;;;;13.35;9.00;;;;;;;10.94;100.00;99446.09;4972648;28;20392;-56
2023/03/13 04:17:26;;;;;;;10.77;8.70;;;;;;;11.19;100.00;99485.91;4971275;28;20039;-55
2023/03/13 04:19:51;;;;;;;14.52;9.23;;;;;;;10.96;100.00;99438.94;4971504;28;20479;-56
2023/03/13 04:22:17;;;;;;;13.95;8.75;;;;;;;10.94;100.00;99461.88;4972420;28;20045;-55
2023/03/13 04:24:42;;;;;;;14.10;8.40;;;;;;;10.95;100.00;99447.78;4973003;28;20065;-52
2023/03/13 04:27:07;;;;;;;10.93;7.85;;;;;;;11.16;100.00;99475.53;4972564;28;20042;-54
2023/03/13 04:29:33;;;;;;;10.02;8.52;;;;;;;11.27;100.00;99492.44;4987634;28;20050;-56
2023/03/13 04:31:59;;;;;;;13.13;9.60;;;;;;;11.18;100.00;99489.47;4987348;28;20043;-54
2023/03/13 04:34:25;;;;;;;12.15;7.90;;;;;;;11.28;100.00;99470.44;4972486;28;20077;-58
2023/03/13 04:36:51;;;;;;;11.50;8.05;;;;;;;11.23;100.00;99455.84;4971351;28;20074;-55
2023/03/13 04:39:16;;;;;;;14.13;8.63;;;;;;;11.32;100.00;99478.16;4971571;28;20058;-54
2023/03/13 04:41:41;;;;;;;14.02;8.15;;;;;;;11.31;100.00;99461.50;4972523;28;20494;-55
2023/03/13 04:44:07;;;;;;;10.65;7.90;;;;;;;11.07;100.00;99408.44;4972387;28;20507;-53
2023/03/13 04:46:32;;;;;;;15.32;7.60;;;;;;;11.37;100.00;99445.34;4972560;28;20110;-53
2023/03/13 04:48:57;;;;;;;11.93;7.05;;;;;;;11.02;100.00;99413.13;4972288;28;20109;-55
2023/03/13 04:51:23;;;;;;;13.65;7.20;;;;;;;11.39;100.00;99454.00;4971218;28;20145;-55
2023/03/13 04:53:48;;;;;;;10.60;6.45;;;;;;;11.41;100.00;99449.53;4971440;28;20052;-55
2023/03/13 04:56:23;;;;;;;11.75;6.85;;;;;;;11.11;100.00;99388.91;4971825;28;20046;-54
2023/03/13 04:58:48;;;;;;;12.32;7.13;;;;;;;11.42;100.00;99443.28;4971071;28;20407;-53
2023/03/13 05:01:14;;;;;;;15.07;6.25;;;;;;;10.94;100.00;99367.13;4972244;28;20142;-53
2023/03/13 05:03:39;;;;;;;12.13;6.47;;;;;;;11.47;100.00;99429.88;4972008;28;20517;-51
2023/03/13 05:06:04;;;;;;;13.35;6.05;;;;;;;11.50;100.00;99429.69;4972384;28;20458;-53
2023/03/13 05:08:30;;;;;;;13.15;5.80;;;;;;;11.28;100.00;99407.22;4972272;28;20126;-54
2023/03/13 05:10:55;;;;;;;11.98;5.53;;;;;;;11.37;100.00;99382.13;4971480;28;20122;-54
2023/03/13 05:13:21;;;;;;;12.20;5.75;;;;;;;11.58;100.00;99407.22;4971007;28;20063;-50
2023/03/13 05:15:46;;;;;;;10.90;5.18;;;;;;;11.63;100.00;99405.16;4971934;28;20039;-52
2023/03/13 05:18:11;;;;;;;22.00;6.60;;;;;;;11.55;100.00;99391.59;4972225;28;20067;-50
2023/03/13 05:20:37;;;;;;;13.10;4.53;;;;;;;11.65;100.00;99370.78;4971237;28;20125;-52
2023/03/13 05:23:02;;;;;;;14.23;4.60;;;;;;;11.66;100.00;99389.16;4990802;28;20039;-55
2023/03/13 05:25:27;;;;;;;14.50;4.88;;;;;;;11.48;100.00;99352.50;4957483;28;20088;-54
2023/03/13 05:27:53;;;;;;;13.80;4.50;;;;;;;11.47;100.00;99340.28;4975277;28;20328;-53
2023/03/13 05:30:18;;;;;;;11.02;4.50;;;;;;;11.55;100.00;99341.53;4975390;28;20383;-53
2023/03/13 05:32:44;;;;;;;11.38;4.05;;;;;;;11.67;100.00;99347.84;4975460;28;20525;-52
2023/03/13 05:35:09;;;;;;;8.10;4.10;;;;;;;11.90;100.00;99365.78;4975340;28;20125;-52
2023/03/13 05:37:34;;;;;;;10.90;4.40;;;;;;;11.74;100.00;99343.91;4975659;28;20474;-49
2023/03/13 05:40:00;;;;;;;11.38;3.80;;;;;;;12.06;100.00;99397.31;4974256;28;20038;-54
2023/03/13 05:42:25;;;;;;;13.40;4.18;;;;;;;11.97;100.00;99376.78;4974130;28;20043;-53
2023/03/13 05:44:51;;;;;;;8.63;3.40;;;;;;;11.75;100.00;99324.53;4975470;28;20050;-53
2023/03/13 05:47:17;;;;;;;13.75;3.55;;;;;;;11.88;100.00;99349.19;4975105;28;20046;-54
2023/03/13 05:49:43;;;;;;;11.38;3.40;;;;;;;12.23;100.00;99399.78;4989986;28;20139;-56
2023/03/13 05:52:08;;;;;;;15.40;3.83;;;;;;;11.97;100.00;99329.31;4974047;28;20074;-54
2023/03/13 05:54:33;;;;;;;8.40;3.65;;;;;;;12.21;100.00;99380.56;4975320;28;20039;-50
2023/03/13 05:56:59;;;;;;;8.68;3.50;;;;;;;11.99;100.00;99345.91;4973787;28;20387;-51
2023/03/13 05:59:24;;;;;;;9.13;3.83;;;;;;;12.29;100.00;99394.97;4974212;28;20089;-53
2023/03/13 06:01:49;;;;;;;13.85;4.18;;;;;;;12.02;100.00;99354.50;4975000;28;20129;-52
2023/03/13 06:04:14;;;;;;;13.48;4.30;;;;;;;12.34;100.00;99399.97;4973675;28;20133;-53
2023/03/13 06:06:40;;;;;;;13.48;3.67;;;;;;;12.37;100.00;99427.00;4989859;28;20039;-54
2023/03/13 06:09:05;;;;;;;13.88;4.78;;;;;;;12.06;100.00;99336.66;4975000;28;20077;-55
2023/03/13 06:11:30;;;;;;;9.77;4.18;;;;;;;11.74;100.00;99320.19;4974969;28;20042;-54
2023/03/13 06:13:56;;;;;;;13.65;4.10;;;;;;;12.02;100.00;99383.50;4974737;28;20518;-49
2023/03/13 06:16:21;;;;;;;12.57;4.03;;;;;;;11.93;100.00;99362.09;4973338;28;20074;-52
2023/03/13 06:18:46;;;;;;;8.38;3.13;;;;;;;12.16;100.00;99420.41;4974701;28;20039;-52
2023/03/13 06:21:12;;;;;;;8.65;3.88;;;;;;;11.84;100.00;99363.50;4973254;28;20039;-51
2023/03/13 06:23:37;;;;;;;10.38;3.80;;;;;;;11.74;100.00;99357.94;4974471;28;20106;-50
2023/03/13 06:26:03;;;;;;;9.90;4.15;;;;;;;11.63;100.00;99357.72;4974527;28;20035;-54
2023/03/13 06:28:28;;;;;;;14.50;4.10;;;;;;;11.56;100.00;99374.81;4974484;28;20441;-53
2023/03/13 06:30:54;;;;;;;13.85;3.95;;;;;;;11.73;100.00;99426.59;4973606;28;20031;-51
2023/03/13 06:33:19;;;;;;;9.98;4.25;;;;;;;11.66;100.00;99412.88;4973799;28;20066;-53
2023/03/13 06:35:45;;;;;;;13.95;4.45;;;;;;;11.43;100.00;99365.97;4974223;28;20342;-51
2023/03/13 06:38:10;;;;;;;10.05;4.20;;;;;;;11.60;100.00;99393.94;4974181;28;20435;-55
2023/03/13 06:40:36;;;;;;;7.78;4.20;;;;;;;11.23;100.00;99361.00;4974053;28;20039;-51
2023/03/13 06:43:01;;;;;;;14.32;4.70;;;;;;;11.49;100.00;99407.75;4989013;28;20038;-51
2023/03/13 06:45:27;;;;;;;9.98;4.13;;;;;;;11.44;100.00;99395.78;4988478;28;20117;-54
2023/03/13 06:47:52;;;;;;;9.85;4.70;;;;;;;11.39;100.00;99406.59;4967019;28;20368;-53
2023/03/13 06:50:18;;;;;;;9.77;4.43;;;;;;;11.34;100.00;99389.34;4961546;28;20529;-54
2023/03/13 06:52:43;;;;;;;15.27;5.25;;;;;;;11.02;100.00;99354.34;4970977;28;20045;-56
2023/03/13 06:55:09;;;;;;;13.43;5.63;;;;;;;11.32;100.00;99412.31;4973916;28;20050;-52
2023/03/13 06:57:35;;;;;;;11.30;5.30;;;;;;;11.30;100.00;99388.69;4973163;28;20069;-57
2023/03/13 07:00:00;;;;;;;12.13;5.20;;;;;;;11.35;100.00;99393.69;4970782;28;20488;-54
2023/03/13 07:02:25;;;;;;;11.45;5.38;;;;;;;11.05;100.00;99326.06;4973600;28;20043;-52
2023/03/13 07:04:51;;;;;;;14.88;5.30;;;;;;;11.24;100.00;99365.31;4971403;28;20038;-52
2023/03/13 07:07:16;;;;;;;14.30;4.68;;;;;;;11.04;100.00;99339.31;4972368;28;20034;-55
2023/03/13 07:09:41;;;;;;;15.43;5.15;;;;;;;11.41;100.00;99398.59;4988220;28;20034;-54
2023/03/13 07:12:07;;;;;;;10.95;4.70;;;;;;;11.37;100.00;99387.41;4973542;28;20474;-52
2023/03/13 07:14:33;;;;;;;10.93;4.60;;;;;;;11.44;100.00;99390.53;4973482;28;20034;-51
2023/03/13 07:16:58;;;;;;;9.60;4.90;;;;;;;11.19;100.00;99355.06;4972943;28;20027;-52
2023/03/13 07:19:25;;;;;;;9.63;4.82;;;;;;;11.31;100.00;99366.69;4973522;28;20039;-53
2023/03/13 07:21:51;;;;;;;15.48;4.72;;;;;;;11.39;100.00;99397.81;4972108;28;20050;-54
2023/03/13 07:24:17;;;;;;;14.13;4.63;;;;;;;11.07;100.00;99321.53;4972529;28;20065;-53
2023/03/13 07:26:42;;;;;;;10.88;4.57;;;;;;;11.13;100.00;99342.25;4972791;28;20463;-51
2023/03/13 07:29:08;;;;;;;12.77;5.03;;;;;;;11.47;100.00;99411.44;4973320;28;20043;-53
2023/03/13 07:31:34;;;;;;;10.27;4.30;;;;;;;11.34;100.00;99366.50;4971920;28;20475;-56
2023/03/13 07:33:59;;;;;;;15.23;5.10;;;;;;;11.52;100.00;99390.91;4972780;28;20065;-53
2023/03/13 07:36:25;;;;;;;7.80;3.58;;;;;;;11.58;100.00;99370.31;4971637;28;20035;-54
2023/03/13 07:38:51;;;;;;;13.55;4.13;;;;;;;11.61;100.00;99401.78;4968982;28;20032;-53
2023/03/13 07:41:17;;;;;;;11.02;4.45;;;;;;;11.62;100.00;99397.31;4970050;28;20427;-51
2023/03/13 07:43:43;;;;;;;10.30;3.90;;;;;;;11.49;100.00;99344.53;4972480;28;20097;-50
2023/03/13 07:46:11;;;;;;;11.13;4.03;;;;;;;11.56;100.00;99324.75;4972830;28;20089;-53
2023/03/13 07:48:38;;;;;;;10.68;3.80;;;;;;;11.88;100.00;99359.72;4973085;28;20074;-51
2023/03/13 07:51:06;;;;;;;6.05;3.00;;;;;;;11.79;100.00;99331.31;4972954;28;20035;-49
2023/03/13 07:53:31;;;;;;;7.15;3.92;;;;;;;11.92;100.00;99320.84;4972576;28;20435;-50
2023/03/13 07:56:02;;;;;;;13.38;4.13;;;;;;;11.98;100.00;99325.75;4970532;28;20045;-50
2023/03/13 07:58:29;;;;;;;10.63;3.85;;;;;;;12.14;100.00;99351.06;4972926;28;20358;-57
2023/03/13 08:00:55;;;;;;;11.30;4.28;;;;;;;12.47;100.00;99376.28;4983720;28;20050;-53
2023/03/13 08:03:22;;;;;;;7.28;3.10;;;;;;;12.51;100.00;99388.34;4972317;28;20042;-52
2023/03/13 08:05:47;;;;;;;7.13;3.17;;;;;;;12.14;100.00;99323.88;4971378;28;20073;-52
2023/03/13 08:08:12;;;;;;;9.85;2.90;;;;;;;12.52;100.00;99355.75;4971150;28;20058;-54
2023/03/13 08:10:38;;;;;;;9.63;3.30;;;;;;;12.48;100.00;99372.72;4971624;28;20050;-52
2023/03/13 08:13:03;;;;;;;5.80;2.25;;;;;;;12.11;100.00;99316.97;4972382;28;20503;-52
2023/03/13 08:15:29;;;;;;;6.15;2.60;;;;;;;12.40;100.00;99365.28;4971731;28;20426;-51
2023/03/13 08:17:55;;;;;;;4.78;2.65;;;;;;;12.12;100.00;99305.47;4987764;28;20106;-53
2023/03/13 08:20:20;;;;;;;8.40;2.60;;;;;;;12.53;100.00;99367.97;4987698;28;20050;-51
2023/03/13 08:22:46;;;;;;;5.72;2.20;;;;;;;12.59;100.00;99376.38;4971324;28;20027;-55
2023/03/13 08:25:12;;;;;;;7.93;2.47;;;;;;;12.61;100.00;99363.09;4972399;28;20158;-52
2023/03/13 08:27:38;;;;;;;5.18;2.53;;;;;;;12.69;100.00;99368.72;4971087;28;20038;-53
2023/03/13 08:30:04;;;;;;;9.70;2.25;;;;;;;12.75;100.00;99376.25;4972379;28;20042;-55
2023/03/13 08:32:32;;;;;;;8.60;2.47;;;;;;;12.79;100.00;99369.81;4971363;28;20402;-51
2023/03/13 08:34:57;;;;;;;8.52;2.30;;;;;;;12.85;100.00;99364.13;4972424;28;20046;-55
2023/03/13 08:37:23;;;;;;;7.38;2.10;;;;;;;12.92;100.00;99358.38;4972616;28;20051;-52
2023/03/13 08:39:48;;;;;;;6.97;2.28;;;;;;;13.09;100.00;99370.50;4972550;28;20035;-53
2023/03/13 08:42:14;;;;;;;5.45;1.75;;;;;;;13.54;100.00;99374.53;4987191;28;20130;-51
2023/03/13 08:44:39;;;;;;;9.52;2.47;;;;;;;14.07;100.00;99352.28;4971049;28;20035;-49
2023/03/13 08:47:06;;;;;;;9.93;2.17;;;;;;;14.59;100.00;99315.88;4972550;28;20134;-52
2023/03/13 08:49:31;;;;;;;9.25;2.53;;;;;;;15.66;100.00;99377.69;4986735;28;20035;-50
2023/03/13 08:51:57;;;;;;;7.18;2.00;;;;;;;16.21;100.00;99392.84;4987525;28;20034;-51
2023/03/13 08:54:22;;;;;;;10.50;2.72;;;;;;;16.19;100.00;99331.09;4972468;28;20074;-56
2023/03/13 08:56:47;;;;;;;7.30;2.17;;;;;;;16.00;100.00;99352.06;4974795;28;20054;-54
2023/03/13 08:59:14;;;;;;;11.25;2.75;;;;;;;15.75;100.00;99400.88;4976094;28;20450;-56
2023/03/13 09:01:40;;;;;;;9.60;2.30;;;;;;;15.69;100.00;99396.03;4976198;28;20043;-57
2023/03/13 09:04:06;;;;;;;8.93;3.10;;;;;;;15.23;100.00;99321.75;4976221;28;20057;-50
2023/03/13 09:06:36;;;;;;;7.60;2.90;;;;;;;15.42;100.00;99358.31;4989677;28;20038;-55
2023/03/13 09:09:02;;;;;;;10.93;2.70;;;;;;;15.01;100.00;99290.69;4976060;28;20039;-54
2023/03/13 09:11:28;;;;;;;10.63;2.97;;;;;;;14.88;100.00;99332.31;4976001;28;20027;-53
2023/03/13 09:13:54;;;;;;;8.63;2.35;;;;;;;15.00;100.00;99275.75;4990678;28;20150;-51
2023/03/13 09:16:21;;;;;;;8.85;3.15;;;;;;;15.30;100.00;99328.25;4975857;28;20038;-56
2023/03/13 09:18:48;;;;;;;7.30;2.35;;;;;;;15.97;100.00;99381.47;4975886;28;20118;-54
2023/03/13 09:21:16;;;;;;;7.70;2.47;;;;;;;16.51;100.00;99313.44;4974791;28;20054;-54
2023/03/13 09:23:41;;;;;;;6.57;2.50;;;;;;;16.93;100.00;99382.69;4975487;28;20045;-57
2023/03/13 09:26:07;;;;;;;8.65;2.50;;;;;;;16.55;100.00;99360.03;4974203;28;20118;-54
2023/03/13 09:28:33;;;;;;;10.50;2.08;;;;;;;15.75;100.00;99274.38;4973186;28;20047;-56
2023/03/13 09:31:07;;;;;;;6.35;2.58;;;;;;;15.35;100.00;99293.47;4972914;28;20031;-57
2023/03/13 09:33:32;;;;;;;8.45;2.50;;;;;;;15.64;100.00;99342.50;4973972;28;20129;-53
2023/03/13 09:35:57;;;;;;;8.48;2.22;;;;;;;16.33;100.00;99275.06;4974423;28;20034;-57
2023/03/13 09:38:23;;;;;;;6.97;1.95;;;;;;;17.62;100.00;99310.38;4973614;28;20150;-50
2023/03/13 09:40:49;;;;;;;6.93;2.00;;;;;;;17.78;100.00;99272.63;4988995;28;20117;-56
2023/03/13 09:43:30;;;;;;;6.38;1.73;;;;;;;17.43;100.00;99257.00;4972974;28;20414;-54
2023/03/13 09:45:58;;;;;;;7.40;2.00;;;;;;;17.21;100.00;99320.97;4973198;28;20117;-56
2023/03/13 09:48:32;;;;;;;5.15;1.92;;;;;;;16.29;100.00;99308.97;4972887;28;20053;-53
2023/03/13 09:51:06;;;;;;;4.30;1.70;;;;;;;15.98;100.00;99316.84;4989060;28;20109;-56
2023/03/13 09:53:40;;;;;;;3.42;1.60;;;;;;;15.50;100.00;99313.53;4973956;28;20588;-57
2023/03/13 09:56:12;;;;;;;4.25;1.30;;;;;;;15.37;100.00;99287.06;4973398;28;20039;-51
2023/03/13 09:58:41;;;;;;;4.78;1.45;;;;;;;15.14;100.00;99219.91;4988862;28;20038;-52
2023/03/13 10:01:08;;;;;;;4.25;1.73;;;;;;;15.28;100.00;99250.66;4968894;28;20030;-52
2023/03/13 10:03:38;;;;;;;4.82;1.27;;;;;;;15.73;100.00;99194.06;4985542;28;20035;-55
2023/03/13 10:06:12;;;;;;;7.68;1.92;;;;;;;15.83;100.00;99233.13;4988356;28;20039;-56
2023/03/13 10:08:37;;;;;;;7.20;1.95;;;;;;;15.74;100.00;99240.84;4988520;28;20027;-53
2023/03/13 10:11:06;;;;;;;3.65;1.42;;;;;;;15.99;100.00;99266.31;4973895;28;20030;-56
2023/03/13 10:13:38;;;;;;;4.88;1.42;;;;;;;15.77;100.00;99229.16;4988466;28;20074;-54
2023/03/13 10:16:08;;;;;;;4.45;1.85;;;;;;;15.91;100.00;99258.09;4972667;28;20070;-55
2023/03/13 10:18:34;;;;;;;4.20;1.55;;;;;;;16.32;100.00;99324.66;4971548;28;20117;-56
2023/03/13 10:21:21;;;;;;;5.40;1.55;;;;;;;15.61;100.00;99196.84;4973675;28;20473;-55
2023/03/13 10:23:57;;;;;;;4.60;1.20;;;;;;;16.28;100.00;99314.44;4973042;28;20048;-53
2023/03/13 10:26:26;;;;;;;5.13;1.48;;;;;;;16.33;100.00;99257.31;4988449;28;20070;-52
2023/03/13 10:28:53;;;;;;;5.80;2.00;;;;;;;16.40;100.00;99249.72;4972323;28;20458;-53
2023/03/13 10:31:37;;;;;;;8.88;2.65;;;;;;;16.93;100.00;99303.78;4973626;28;20540;-54
2023/03/13 10:34:08;;;;;;;5.82;2.00;;;;;;;16.28;100.00;99248.03;4971856;28;20134;-53
2023/03/13 10:36:47;;;;;;;5.60;2.28;;;;;;;16.88;100.00;99328.09;4972144;28;20057;-52
2023/03/13 10:39:18;;;;;;;9.43;3.08;;;;;;;16.65;100.00;99256.53;4973054;28;20037;-56
2023/03/13 10:41:44;;;;;;;7.53;2.50;;;;;;;16.83;100.00;99334.75;4973245;28;20071;-54
2023/03/13 10:44:21;;;;;;;9.15;2.60;;;;;;;16.32;100.00;99262.75;4987970;28;20070;-53
2023/03/13 10:46:47;;;;;;;7.97;2.47;;;;;;;16.47;100.00;99327.91;4972426;28;20425;-57
2023/03/13 10:49:16;;;;;;;8.18;2.42;;;;;;;16.60;100.00;99319.84;4972944;28;20043;-53
2023/03/13 10:51:47;;;;;;;7.97;2.83;;;;;;;17.67;100.00;99305.47;4970708;28;20549;-52
2023/03/13 10:54:23;;;;;;;5.85;2.13;;;;;;;18.01;100.00;99276.78;4972721;28;20046;-56
2023/03/13 10:57:06;;;;;;;7.15;2.20;;;;;;;18.09;100.00;99276.13;4971364;28;20185;-57
2023/03/13 10:59:32;;;;;;;10.63;2.63;;;;;;;18.37;100.00;99325.97;4973407;28;20063;-53
2023/03/13 11:01:59;;;;;;;7.88;2.53;;;;;;;17.82;100.00;99319.28;4972761;28;20038;-56
2023/03/13 11:04:33;;;;;;;8.25;2.50;;;;;;;16.90;100.00;99247.41;4987745;28;20034;-52
2023/03/13 11:07:03;;;;;;;6.93;2.53;;;;;;;17.17;100.00;99301.75;4973164;28;20029;-55
2023/03/13 11:09:28;;;;;;;7.80;2.58;;;;;;;17.18;100.00;99249.41;4971753;28;20080;-55
2023/03/13 11:12:00;;;;;;;10.38;2.47;;;;;;;17.79;100.00;99309.75;4972219;28;20440;-59
2023/03/13 11:14:26;;;;;;;7.13;2.70;;;;;;;17.65;100.00;99327.88;4972388;28;20035;-58
2023/03/13 11:17:00;;;;;;;10.60;3.22;;;;;;;17.38;100.00;99333.69;4973083;28;20149;-53
2023/03/13 11:19:42;;;;;;;12.18;3.40;;;;;;;18.13;100.00;99325.44;4986723;28;20085;-55